Terminal Aerodrome Forecast
Issued by NWS Topeka, KS

Home | Current Version | Previous Version | Text Only | Print | Product List | Glossary On
Versions: 1 2 3 4 5 6 7 8 9 10 11 12 13 14
000
FTUS43 KTOP 211127
TAFTOP
TAF
KTOP 211127Z 2112/2212 18017G25KT P6SM BKN025
     FM212000 19017G25KT P6SM TSRA BKN025CB
      TEMPO 2121/2123 1SM TSRA OVC020CB
     FM212300 30011KT 5SM SHRA VCTS OVC020CB
     FM220200 33012KT P6SM BKN050
     FM220700 33007KT P6SM BKN150=

USA.gov is the U.S. government's official web portal to all federal, state and local government web resources and services.